Mabie, West Virginia
Current Conditions -  °F | °C
As of 11:22 AM on Wednesday 26 Nov 2014 (Local Time) from KEKN Reporting Station
Moderate Snow Moderate Snow  
Wind Chill: 33°   Ceiling: 700
Heat Index: 33°   Visibility: 0.25mi
Dew Point: 33°   Wind: 0mph
Humidity: 100%   Direction: NA
Pressure: 30"   Gusts: NA
Location:  38.88°N, 79.98°W
Report Text: KEKN 261622Z AUTO 00000KT 1/4SM SN FG VV007 01/01 A3000 RMK AO2 P0003 T00060006 TSNO
Loading
Personal Weather Stations






























Interactive Weather Map New forecast layout! Learn more

10-Day Weather Forecast

Advertisements
Track Severe Weather on mobile